• Join FlightAware (Why Join?)
  • Login
  • US Flag 
11:22AM EST


 

Airport Tracker/Info


-or-


 

Live Flight TrackerFlight Track Log ✈ N678H ✈ 13-Jul-2013 ✈ KELD - KASG

Flight Track Log - Related Links

Times and Time Zones

All times are in EDT time to prevent confusion due to time zone crossing. See the N678H flight status page for this flight to view local times or setup timezone preferences in your user account.

Time Position Orientation Groundspeed Altitude Reporting Facility
EDT Latitude Longitude Course Direction KTS MPH feet Rate Location/Type
06:02PM 33.3231 -92.8617 342° North 157 181 3,200  Level Fort Worth Center
06:03PM 33.3525 -92.8728 343° North 126 145 4,100 780 Climbing Fort Worth Center
06:04PM 33.3864 -92.8858 342° North 121 139 4,800 720 Climbing Fort Worth Center
06:05PM 33.4206 -92.9039 336° Northwest 121 139 5,600 840 Climbing Fort Worth Center
06:06PM 33.4564 -92.9197 340° North 127 146 6,500 900 Climbing Fort Worth Center
06:07PM 33.4883 -92.9353 338° Northwest 127 146 7,400 780 Climbing Fort Worth Center
06:08PM 33.5222 -92.9461 345° North 127 146 8,100 780 Climbing Fort Worth Center
06:09PM 33.5489 -92.9569 341° North 128 147 8,800 840 Climbing Memphis Center
06:10PM 33.5842 -92.9703 343° North 133 153 9,600 720 Climbing Memphis Center
06:11PM 33.6172 -92.9839 341° North 128 147 10,300 660 Climbing Memphis Center
06:12PM 33.6544 -92.9975 343° North 128 147 11,000 660 Climbing Memphis Center
06:13PM 33.6875 -93.0133 338° Northwest 128 147 11,700 420 Climbing Memphis Center
06:14PM 33.7247 -93.0297 340° North 128 147 11,900 120 Climbing Memphis Center
06:15PM 33.7703 -93.0486 341° North 141 162 12,000  Climbing Memphis Center
06:16PM 33.8136 -93.0672 340° North 152 175 11,900 -60 Descending Memphis Center
06:17PM 33.8550 -93.0861 339° North 152 175 11,900  Level Memphis Center
06:18PM 33.8964 -93.1050 339° North 152 175 12,000  Climbing Memphis Center
06:19PM 33.9397 -93.1239 340° North 157 181 11,900 -60 Descending Memphis Center
06:20PM 33.9789 -93.1425 338° Northwest 157 181 11,900  Level Memphis Center
06:21PM 34.0203 -93.1614 339° North 151 174 12,000 60 Climbing Memphis Center
06:22PM 34.0636 -93.1831 338° Northwest 151 174 12,100  Climbing Memphis Center
06:23PM 34.1050 -93.1994 342° North 151 174 12,100 -60 Level Memphis Center
06:24PM 34.1483 -93.2208 338° Northwest 151 174 12,000  Descending Memphis Center
06:25PM 34.1875 -93.2347 344° North 151 174 12,100  Climbing Memphis Center
06:26PM 34.2311 -93.2536 340° North 151 174 12,100 -120 Level Memphis Center
06:27PM 34.2767 -93.2653 348° North 157 181 11,900 -60 Descending Memphis Center
06:28PM 34.3242 -93.2819 344° North 163 188 12,000  Climbing Memphis Center
06:29PM 34.3656 -93.2961 344° North 163 188 12,000  Level Memphis Center
06:30PM 34.4092 -93.3153 340° North 163 188 12,100  Climbing Memphis Center
06:31PM 34.4506 -93.3292 345° North 163 188 12,100  Level Memphis Center
06:32PM 34.4958 -93.3508 338° Northwest 163 188 12,100 -60 Level Memphis Center
06:33PM 34.5394 -93.3625 348° North 163 188 12,000 -60 Descending Memphis Center
06:34PM 34.5786 -93.3764 344° North 163 188 12,000 -60 Level Memphis Center
06:35PM 34.6222 -93.3906 345° North 163 188 11,900 -60 Descending Memphis Center
06:36PM 34.6633 -93.4097 339° North 163 188 11,900  Level Memphis Center
06:37PM 34.7067 -93.4264 342° North 163 188 12,000  Climbing Memphis Center
06:38PM 34.7481 -93.4431 342° North 163 188 11,900  Descending Memphis Center
06:39PM 34.7914 -93.4675 335° Northwest 163 188 12,000  Climbing Memphis Center
06:40PM 34.8325 -93.4867 339° North 163 188 11,900  Descending Memphis Center
06:41PM 34.8758 -93.5061 340° North 168 193 12,000  Climbing Memphis Center
06:42PM 34.9150 -93.5228 341° North 162 186 12,000  Level Memphis Center
06:43PM 34.9586 -93.5369 345° North 162 186 12,100 -60 Climbing Memphis Center
06:44PM 34.9997 -93.5564 339° North 156 180 11,900 -180 Descending Memphis Center
06:45PM 35.0386 -93.5831 331° Northwest 161 185 11,800  Descending Memphis Center
06:46PM 35.0800 -93.6050 337° Northwest 161 185 11,900  Climbing Memphis Center
06:47PM 35.1169 -93.6267 334° Northwest 154 177 11,900  Level Memphis Center
06:48PM 35.1581 -93.6486 336° Northwest 154 177 11,900  Level Memphis Center
06:49PM 35.1992 -93.6681 339° North 154 177 11,900  Level Memphis Center
06:50PM 35.2406 -93.6850 342° North 154 177 12,000  Climbing Memphis Center
06:51PM 35.2861 -93.6994 345° North 154 177 11,900  Descending Memphis Center
06:52PM 35.3275 -93.7114 347° North 154 177 12,000  Climbing Memphis Center
06:53PM 35.3708 -93.7283 342° North 154 177 11,900 -60 Descending Memphis Center
06:54PM 35.4161 -93.7481 340° North 165 190 11,900 -60 Level Memphis Center
06:55PM 35.4594 -93.7650 342° North 165 190 11,800 -60 Descending Memphis Center
06:56PM 35.5028 -93.7822 342° North 165 190 11,800  Level Memphis Center
06:57PM 35.5461 -93.8017 340° North 165 190 11,900 60 Climbing Memphis Center
06:58PM 35.5869 -93.8264 334° Northwest 165 190 12,000 -60 Climbing Memphis Center
06:59PM 35.6278 -93.8561 329° Northwest 165 190 11,800 -600 Descending Memphis Center
07:00PM 35.6731 -93.8811 336° Northwest 165 190 10,800 -1,200 Descending Memphis Center
07:01PM 35.7244 -93.9089 336° Northwest 182 209 9,400 -1,320 Descending Memphis Center
07:02PM 35.7739 -93.9314 340° North 189 217 8,200 -1,440 Descending Memphis Center
07:03PM 35.8275 -93.9467 347° North 189 217 6,600 -1,500 Descending Memphis Center
07:04PM 35.8811 -93.9744 337° Northwest 195 224 5,200 -960 Descending Memphis Center
07:05PM 35.9322 -94.0050 334° Northwest 195 224 4,700 -600 Descending Memphis Center
07:06PM 35.9822 -94.0122 353° North 185 213 4,000 -600 Descending Memphis Center
07:07PM 36.0253 -94.0297 342° North 175 201 3,500 -360 Descending Memphis Center
07:08PM 36.0689 -94.0419 347° North 175 201 3,300 -240 Descending Memphis Center
07:11PM 36.1431 -94.0987 328° Northwest  Level FlightAware Approximate
07:18PM 36.1667 -94.1167 North  Level FlightAware Approximate
07:19PM 36.1764 -94.1192 North  Level Estimated
07:20PM 36.1764 -94.1192 North  Level Estimated